aviador You're here:

KPEZ Decoded Metar

in _UNIDENTIFIED
Report Time2018-01-20 04:55:00
UTC Time2018-01-20 05:14:28
Flight Rules lifr LIFR
Wind180° at 04 kt
W.Decomp.*RWY 16: 3.9 kt HW 1.0 kt RCW
W.Rank180° ranks 22
Current wind is below 180° avg. (6.3)
Visibility2012 m
Phenomena:Mist
Clouds:Overcast 002 Hf
Ceiling200 ft
Temp09°C (ISA -5)
Dew Point09°C (100% RH)
AAT7.3°C
QNH1021 hPa
Density Alt-299 ft
Elevation433 ft
Report Wrong Elevation
Raw Report
KPEZ 200455Z AUTO 18004KT 1 1/4SM BR OVC002 09/09 A3014 RMK AO2
T00900090=

Extra information for KPEZ:More info

Metar Taf Metar & Taf Last 4 Metars F.Rules Stats Wind Profile Meteogram Temp Stats Metar ALERT Operation Metar Decoded Social comments